sensor_id;sensor_type;location;lat;lon;timestamp;P1;durP1;ratioP1;P2;durP2;ratioP2
8708;SDS011;4391;48.678;9.280;2023-11-19T00:00:59;6.38;;;3.25;;
8708;SDS011;4391;48.678;9.280;2023-11-19T00:03:26;6.82;;;2.95;;
8708;SDS011;4391;48.678;9.280;2023-11-19T00:05:53;6.18;;;2.80;;
8708;SDS011;4391;48.678;9.280;2023-11-19T00:08:20;6.82;;;2.85;;
8708;SDS011;4391;48.678;9.280;2023-11-19T00:10:51;6.40;;;2.60;;
8708;SDS011;4391;48.678;9.280;2023-11-19T00:13:18;7.53;;;3.05;;
8708;SDS011;4391;48.678;9.280;2023-11-19T00:15:45;8.15;;;3.10;;
8708;SDS011;4391;48.678;9.280;2023-11-19T00:18:13;6.00;;;2.75;;
8708;SDS011;4391;48.678;9.280;2023-11-19T00:20:40;5.20;;;2.50;;
8708;SDS011;4391;48.678;9.280;2023-11-19T00:23:09;5.13;;;2.20;;
8708;SDS011;4391;48.678;9.280;2023-11-19T00:25:36;4.78;;;1.98;;
8708;SDS011;4391;48.678;9.280;2023-11-19T00:28:05;5.45;;;1.92;;
8708;SDS011;4391;48.678;9.280;2023-11-19T00:30:32;4.30;;;1.70;;
8708;SDS011;4391;48.678;9.280;2023-11-19T00:32:59;4.65;;;2.10;;
8708;SDS011;4391;48.678;9.280;2023-11-19T00:35:26;4.60;;;2.13;;
8708;SDS011;4391;48.678;9.280;2023-11-19T00:37:52;5.10;;;1.85;;
8708;SDS011;4391;48.678;9.280;2023-11-19T00:40:20;5.50;;;2.17;;
8708;SDS011;4391;48.678;9.280;2023-11-19T00:42:48;5.32;;;1.92;;
8708;SDS011;4391;48.678;9.280;2023-11-19T00:45:16;5.80;;;2.35;;
8708;SDS011;4391;48.678;9.280;2023-11-19T00:47:43;4.13;;;2.30;;
8708;SDS011;4391;48.678;9.280;2023-11-19T00:50:10;6.45;;;1.98;;
8708;SDS011;4391;48.678;9.280;2023-11-19T00:52:37;5.15;;;2.20;;
8708;SDS011;4391;48.678;9.280;2023-11-19T00:55:05;4.85;;;2.00;;
8708;SDS011;4391;48.678;9.280;2023-11-19T00:57:32;6.32;;;2.15;;
8708;SDS011;4391;48.678;9.280;2023-11-19T01:00:00;5.60;;;2.10;;
8708;SDS011;4391;48.678;9.280;2023-11-19T01:02:29;5.13;;;2.33;;
8708;SDS011;4391;48.678;9.280;2023-11-19T01:04:56;4.63;;;2.20;;
8708;SDS011;4391;48.678;9.280;2023-11-19T01:07:22;4.22;;;1.75;;
8708;SDS011;4391;48.678;9.280;2023-11-19T01:09:51;4.63;;;2.00;;
8708;SDS011;4391;48.678;9.280;2023-11-19T01:12:19;4.70;;;1.93;;
8708;SDS011;4391;48.678;9.280;2023-11-19T01:14:46;4.18;;;1.75;;
8708;SDS011;4391;48.678;9.280;2023-11-19T01:17:12;4.40;;;1.70;;
8708;SDS011;4391;48.678;9.280;2023-11-19T01:19:41;5.13;;;1.90;;
8708;SDS011;4391;48.678;9.280;2023-11-19T01:22:07;4.22;;;1.88;;
8708;SDS011;4391;48.678;9.280;2023-11-19T01:24:34;4.57;;;2.10;;
8708;SDS011;4391;48.678;9.280;2023-11-19T01:27:01;4.80;;;2.15;;
8708;SDS011;4391;48.678;9.280;2023-11-19T01:29:28;4.10;;;2.03;;
8708;SDS011;4391;48.678;9.280;2023-11-19T01:31:55;4.07;;;1.75;;
8708;SDS011;4391;48.678;9.280;2023-11-19T01:34:21;4.60;;;1.98;;
8708;SDS011;4391;48.678;9.280;2023-11-19T01:36:50;3.60;;;1.57;;
8708;SDS011;4391;48.678;9.280;2023-11-19T01:39:16;5.72;;;1.90;;
8708;SDS011;4391;48.678;9.280;2023-11-19T01:41:45;4.50;;;1.60;;
8708;SDS011;4391;48.678;9.280;2023-11-19T01:44:11;3.33;;;1.20;;
8708;SDS011;4391;48.678;9.280;2023-11-19T01:46:39;4.95;;;1.40;;
8708;SDS011;4391;48.678;9.280;2023-11-19T01:49:07;3.37;;;1.67;;
8708;SDS011;4391;48.678;9.280;2023-11-19T01:51:36;4.15;;;1.70;;
8708;SDS011;4391;48.678;9.280;2023-11-19T01:54:05;4.45;;;1.60;;
8708;SDS011;4391;48.678;9.280;2023-11-19T01:56:33;6.75;;;1.75;;
8708;SDS011;4391;48.678;9.280;2023-11-19T01:59:01;3.47;;;1.60;;
8708;SDS011;4391;48.678;9.280;2023-11-19T02:01:29;3.20;;;1.20;;
8708;SDS011;4391;48.678;9.280;2023-11-19T02:03:57;4.18;;;1.38;;
8708;SDS011;4391;48.678;9.280;2023-11-19T02:06:24;3.47;;;1.20;;
8708;SDS011;4391;48.678;9.280;2023-11-19T02:08:53;3.45;;;1.30;;
8708;SDS011;4391;48.678;9.280;2023-11-19T02:11:21;3.88;;;1.20;;
8708;SDS011;4391;48.678;9.280;2023-11-19T02:13:49;2.77;;;1.17;;
8708;SDS011;4391;48.678;9.280;2023-11-19T02:16:16;3.83;;;1.10;;
8708;SDS011;4391;48.678;9.280;2023-11-19T02:18:43;2.83;;;0.88;;
8708;SDS011;4391;48.678;9.280;2023-11-19T02:21:09;2.63;;;0.80;;
8708;SDS011;4391;48.678;9.280;2023-11-19T02:23:36;2.92;;;1.00;;
8708;SDS011;4391;48.678;9.280;2023-11-19T02:26:05;2.40;;;1.00;;
8708;SDS011;4391;48.678;9.280;2023-11-19T02:28:41;2.58;;;0.90;;
8708;SDS011;4391;48.678;9.280;2023-11-19T02:31:09;3.05;;;0.85;;
8708;SDS011;4391;48.678;9.280;2023-11-19T02:33:36;3.40;;;0.80;;
8708;SDS011;4391;48.678;9.280;2023-11-19T02:36:03;2.53;;;1.00;;
8708;SDS011;4391;48.678;9.280;2023-11-19T02:38:32;1.73;;;0.70;;
8708;SDS011;4391;48.678;9.280;2023-11-19T02:40:59;4.20;;;1.10;;
8708;SDS011;4391;48.678;9.280;2023-11-19T02:43:30;3.17;;;0.82;;
8708;SDS011;4391;48.678;9.280;2023-11-19T02:46:01;2.70;;;1.05;;
8708;SDS011;4391;48.678;9.280;2023-11-19T02:48:29;2.22;;;0.82;;
8708;SDS011;4391;48.678;9.280;2023-11-19T02:50:56;3.03;;;0.83;;
8708;SDS011;4391;48.678;9.280;2023-11-19T02:53:32;3.00;;;0.80;;
8708;SDS011;4391;48.678;9.280;2023-11-19T02:55:59;2.08;;;0.68;;
8708;SDS011;4391;48.678;9.280;2023-11-19T02:58:34;2.40;;;1.00;;
8708;SDS011;4391;48.678;9.280;2023-11-19T03:01:03;2.13;;;0.80;;
8708;SDS011;4391;48.678;9.280;2023-11-19T03:03:37;1.60;;;0.60;;
8708;SDS011;4391;48.678;9.280;2023-11-19T03:06:05;3.80;;;1.10;;
8708;SDS011;4391;48.678;9.280;2023-11-19T03:08:34;1.60;;;0.60;;
8708;SDS011;4391;48.678;9.280;2023-11-19T03:11:02;1.65;;;0.68;;
8708;SDS011;4391;48.678;9.280;2023-11-19T03:13:29;2.08;;;0.80;;
8708;SDS011;4391;48.678;9.280;2023-11-19T03:15:56;4.50;;;0.70;;
8708;SDS011;4391;48.678;9.280;2023-11-19T03:18:25;2.60;;;0.70;;
8708;SDS011;4391;48.678;9.280;2023-11-19T03:20:52;1.80;;;0.60;;
8708;SDS011;4391;48.678;9.280;2023-11-19T03:23:19;1.75;;;0.60;;
8708;SDS011;4391;48.678;9.280;2023-11-19T03:25:45;1.20;;;0.60;;
8708;SDS011;4391;48.678;9.280;2023-11-19T03:28:12;2.83;;;0.60;;
8708;SDS011;4391;48.678;9.280;2023-11-19T03:30:39;1.67;;;0.57;;
8708;SDS011;4391;48.678;9.280;2023-11-19T03:33:07;2.55;;;0.70;;
8708;SDS011;4391;48.678;9.280;2023-11-19T03:35:35;1.25;;;0.60;;
8708;SDS011;4391;48.678;9.280;2023-11-19T03:38:02;1.70;;;0.50;;
8708;SDS011;4391;48.678;9.280;2023-11-19T03:40:29;2.53;;;0.50;;
8708;SDS011;4391;48.678;9.280;2023-11-19T03:42:55;5.40;;;0.40;;
8708;SDS011;4391;48.678;9.280;2023-11-19T03:45:23;1.98;;;0.65;;
8708;SDS011;4391;48.678;9.280;2023-11-19T03:47:50;1.67;;;0.40;;
8708;SDS011;4391;48.678;9.280;2023-11-19T03:50:17;1.60;;;0.60;;
8708;SDS011;4391;48.678;9.280;2023-11-19T03:52:46;2.13;;;0.50;;
8708;SDS011;4391;48.678;9.280;2023-11-19T03:55:13;2.53;;;0.57;;
8708;SDS011;4391;48.678;9.280;2023-11-19T03:57:40;1.40;;;0.45;;
8708;SDS011;4391;48.678;9.280;2023-11-19T04:00:07;1.73;;;0.52;;
8708;SDS011;4391;48.678;9.280;2023-11-19T04:02:35;1.00;;;0.38;;
8708;SDS011;4391;48.678;9.280;2023-11-19T04:05:02;1.30;;;0.53;;
8708;SDS011;4391;48.678;9.280;2023-11-19T04:07:30;0.93;;;0.40;;
8708;SDS011;4391;48.678;9.280;2023-11-19T04:09:58;0.95;;;0.40;;
8708;SDS011;4391;48.678;9.280;2023-11-19T04:12:25;1.42;;;0.43;;
8708;SDS011;4391;48.678;9.280;2023-11-19T04:14:52;1.25;;;0.57;;
8708;SDS011;4391;48.678;9.280;2023-11-19T04:17:18;1.37;;;0.50;;
8708;SDS011;4391;48.678;9.280;2023-11-19T04:19:45;1.48;;;0.50;;
8708;SDS011;4391;48.678;9.280;2023-11-19T04:22:12;1.38;;;0.40;;
8708;SDS011;4391;48.678;9.280;2023-11-19T04:24:40;1.58;;;0.43;;
8708;SDS011;4391;48.678;9.280;2023-11-19T04:27:10;1.23;;;0.40;;
8708;SDS011;4391;48.678;9.280;2023-11-19T04:29:37;2.60;;;0.50;;
8708;SDS011;4391;48.678;9.280;2023-11-19T04:32:04;1.05;;;0.40;;
8708;SDS011;4391;48.678;9.280;2023-11-19T04:34:32;1.20;;;0.50;;
8708;SDS011;4391;48.678;9.280;2023-11-19T04:36:59;1.80;;;0.52;;
8708;SDS011;4391;48.678;9.280;2023-11-19T04:39:28;1.00;;;0.40;;
8708;SDS011;4391;48.678;9.280;2023-11-19T04:41:55;1.70;;;0.50;;
8708;SDS011;4391;48.678;9.280;2023-11-19T04:44:23;1.20;;;0.50;;
8708;SDS011;4391;48.678;9.280;2023-11-19T04:46:50;1.00;;;0.40;;
8708;SDS011;4391;48.678;9.280;2023-11-19T04:49:17;0.75;;;0.30;;
8708;SDS011;4391;48.678;9.280;2023-11-19T04:51:44;0.90;;;0.50;;
8708;SDS011;4391;48.678;9.280;2023-11-19T04:54:13;0.90;;;0.50;;
8708;SDS011;4391;48.678;9.280;2023-11-19T04:56:40;0.88;;;0.32;;
8708;SDS011;4391;48.678;9.280;2023-11-19T04:59:07;0.73;;;0.40;;
8708;SDS011;4391;48.678;9.280;2023-11-19T05:01:35;0.85;;;0.40;;
8708;SDS011;4391;48.678;9.280;2023-11-19T05:04:02;2.83;;;0.50;;
8708;SDS011;4391;48.678;9.280;2023-11-19T05:06:29;1.00;;;0.40;;
8708;SDS011;4391;48.678;9.280;2023-11-19T05:08:58;0.95;;;0.50;;
8708;SDS011;4391;48.678;9.280;2023-11-19T05:11:26;1.13;;;0.40;;
8708;SDS011;4391;48.678;9.280;2023-11-19T05:13:53;0.95;;;0.40;;
8708;SDS011;4391;48.678;9.280;2023-11-19T05:16:20;1.13;;;0.40;;
8708;SDS011;4391;48.678;9.280;2023-11-19T05:18:48;1.10;;;0.60;;
8708;SDS011;4391;48.678;9.280;2023-11-19T05:21:15;1.02;;;0.40;;
8708;SDS011;4391;48.678;9.280;2023-11-19T05:23:42;0.75;;;0.32;;
8708;SDS011;4391;48.678;9.280;2023-11-19T05:26:09;1.00;;;0.50;;
8708;SDS011;4391;48.678;9.280;2023-11-19T05:28:44;0.80;;;0.40;;
8708;SDS011;4391;48.678;9.280;2023-11-19T05:31:10;0.93;;;0.40;;
8708;SDS011;4391;48.678;9.280;2023-11-19T05:33:37;0.82;;;0.30;;
8708;SDS011;4391;48.678;9.280;2023-11-19T05:36:06;2.83;;;0.40;;
8708;SDS011;4391;48.678;9.280;2023-11-19T05:38:34;2.60;;;0.47;;
8708;SDS011;4391;48.678;9.280;2023-11-19T05:41:01;0.60;;;0.30;;
8708;SDS011;4391;48.678;9.280;2023-11-19T05:43:28;0.50;;;0.30;;
8708;SDS011;4391;48.678;9.280;2023-11-19T05:45:54;1.33;;;0.40;;
8708;SDS011;4391;48.678;9.280;2023-11-19T05:48:21;2.70;;;0.40;;
8708;SDS011;4391;48.678;9.280;2023-11-19T05:50:48;1.23;;;0.25;;
8708;SDS011;4391;48.678;9.280;2023-11-19T05:53:17;0.90;;;0.40;;
8708;SDS011;4391;48.678;9.280;2023-11-19T05:55:44;1.77;;;0.30;;
8708;SDS011;4391;48.678;9.280;2023-11-19T05:58:14;0.70;;;0.40;;
8708;SDS011;4391;48.678;9.280;2023-11-19T06:00:40;1.92;;;0.40;;
8708;SDS011;4391;48.678;9.280;2023-11-19T06:03:08;1.38;;;0.50;;
8708;SDS011;4391;48.678;9.280;2023-11-19T06:05:35;0.90;;;0.40;;
8708;SDS011;4391;48.678;9.280;2023-11-19T06:08:02;1.07;;;0.40;;
8708;SDS011;4391;48.678;9.280;2023-11-19T06:10:30;0.85;;;0.50;;
8708;SDS011;4391;48.678;9.280;2023-11-19T06:12:57;0.80;;;0.40;;
8708;SDS011;4391;48.678;9.280;2023-11-19T06:15:24;0.60;;;0.30;;
8708;SDS011;4391;48.678;9.280;2023-11-19T06:17:52;0.90;;;0.40;;
8708;SDS011;4391;48.678;9.280;2023-11-19T06:20:19;2.90;;;0.50;;
8708;SDS011;4391;48.678;9.280;2023-11-19T06:22:46;1.15;;;0.50;;
8708;SDS011;4391;48.678;9.280;2023-11-19T06:25:12;2.65;;;0.52;;
8708;SDS011;4391;48.678;9.280;2023-11-19T06:27:42;1.00;;;0.40;;
8708;SDS011;4391;48.678;9.280;2023-11-19T06:30:11;1.23;;;0.40;;
8708;SDS011;4391;48.678;9.280;2023-11-19T06:32:38;0.90;;;0.30;;
8708;SDS011;4391;48.678;9.280;2023-11-19T06:35:05;1.10;;;0.40;;
8708;SDS011;4391;48.678;9.280;2023-11-19T06:37:32;1.83;;;0.50;;
8708;SDS011;4391;48.678;9.280;2023-11-19T06:39:59;1.10;;;0.35;;
8708;SDS011;4391;48.678;9.280;2023-11-19T06:42:26;1.30;;;0.50;;
8708;SDS011;4391;48.678;9.280;2023-11-19T06:44:54;0.90;;;0.40;;
8708;SDS011;4391;48.678;9.280;2023-11-19T06:47:22;1.10;;;0.40;;
8708;SDS011;4391;48.678;9.280;2023-11-19T06:49:51;0.73;;;0.32;;
8708;SDS011;4391;48.678;9.280;2023-11-19T06:52:18;0.80;;;0.40;;
8708;SDS011;4391;48.678;9.280;2023-11-19T06:54:45;1.10;;;0.50;;
8708;SDS011;4391;48.678;9.280;2023-11-19T06:57:12;1.47;;;0.60;;
8708;SDS011;4391;48.678;9.280;2023-11-19T06:59:39;1.63;;;0.55;;
8708;SDS011;4391;48.678;9.280;2023-11-19T07:02:08;1.00;;;0.40;;
8708;SDS011;4391;48.678;9.280;2023-11-19T07:04:35;2.65;;;0.60;;
8708;SDS011;4391;48.678;9.280;2023-11-19T07:07:02;1.45;;;0.60;;
8708;SDS011;4391;48.678;9.280;2023-11-19T07:09:30;2.60;;;0.40;;
8708;SDS011;4391;48.678;9.280;2023-11-19T07:11:57;1.25;;;0.57;;
8708;SDS011;4391;48.678;9.280;2023-11-19T07:14:25;1.83;;;0.88;;
8708;SDS011;4391;48.678;9.280;2023-11-19T07:16:51;1.60;;;0.43;;
8708;SDS011;4391;48.678;9.280;2023-11-19T07:19:20;4.03;;;0.55;;
8708;SDS011;4391;48.678;9.280;2023-11-19T07:21:55;0.80;;;0.33;;
8708;SDS011;4391;48.678;9.280;2023-11-19T07:24:25;0.82;;;0.25;;
8708;SDS011;4391;48.678;9.280;2023-11-19T07:26:53;1.23;;;0.30;;
8708;SDS011;4391;48.678;9.280;2023-11-19T07:29:20;0.90;;;0.40;;
8708;SDS011;4391;48.678;9.280;2023-11-19T07:31:53;0.93;;;0.50;;
8708;SDS011;4391;48.678;9.280;2023-11-19T07:34:25;0.83;;;0.40;;
8708;SDS011;4391;48.678;9.280;2023-11-19T07:36:52;0.60;;;0.40;;
8708;SDS011;4391;48.678;9.280;2023-11-19T07:39:19;1.48;;;0.40;;
8708;SDS011;4391;48.678;9.280;2023-11-19T07:41:46;0.70;;;0.40;;
8708;SDS011;4391;48.678;9.280;2023-11-19T07:44:13;0.75;;;0.30;;
8708;SDS011;4391;48.678;9.280;2023-11-19T07:46:40;0.80;;;0.30;;
8708;SDS011;4391;48.678;9.280;2023-11-19T07:49:07;1.88;;;0.80;;
8708;SDS011;4391;48.678;9.280;2023-11-19T07:51:36;0.85;;;0.35;;
8708;SDS011;4391;48.678;9.280;2023-11-19T07:54:03;0.68;;;0.30;;
8708;SDS011;4391;48.678;9.280;2023-11-19T07:56:30;2.60;;;0.47;;
8708;SDS011;4391;48.678;9.280;2023-11-19T07:58:57;0.63;;;0.30;;
8708;SDS011;4391;48.678;9.280;2023-11-19T08:01:25;1.27;;;0.40;;
8708;SDS011;4391;48.678;9.280;2023-11-19T08:03:53;0.93;;;0.30;;
8708;SDS011;4391;48.678;9.280;2023-11-19T08:06:19;3.20;;;0.73;;
8708;SDS011;4391;48.678;9.280;2023-11-19T08:08:48;1.08;;;0.50;;
8708;SDS011;4391;48.678;9.280;2023-11-19T08:11:15;0.90;;;0.40;;
8708;SDS011;4391;48.678;9.280;2023-11-19T08:13:42;1.15;;;0.47;;
8708;SDS011;4391;48.678;9.280;2023-11-19T08:16:08;0.98;;;0.40;;
8708;SDS011;4391;48.678;9.280;2023-11-19T08:18:35;0.50;;;0.30;;
8708;SDS011;4391;48.678;9.280;2023-11-19T08:21:03;0.73;;;0.40;;
8708;SDS011;4391;48.678;9.280;2023-11-19T08:23:30;1.67;;;0.60;;
8708;SDS011;4391;48.678;9.280;2023-11-19T08:25:58;1.20;;;0.50;;
8708;SDS011;4391;48.678;9.280;2023-11-19T08:28:25;0.73;;;0.30;;
8708;SDS011;4391;48.678;9.280;2023-11-19T08:30:52;1.77;;;0.47;;
8708;SDS011;4391;48.678;9.280;2023-11-19T08:33:19;0.90;;;0.40;;
8708;SDS011;4391;48.678;9.280;2023-11-19T08:35:47;0.80;;;0.40;;
8708;SDS011;4391;48.678;9.280;2023-11-19T08:38:14;1.05;;;0.60;;
8708;SDS011;4391;48.678;9.280;2023-11-19T08:40:41;0.70;;;0.30;;
8708;SDS011;4391;48.678;9.280;2023-11-19T08:43:09;1.00;;;0.50;;
8708;SDS011;4391;48.678;9.280;2023-11-19T08:45:36;1.40;;;0.40;;
8708;SDS011;4391;48.678;9.280;2023-11-19T08:48:03;1.10;;;0.50;;
8708;SDS011;4391;48.678;9.280;2023-11-19T08:50:30;0.80;;;0.40;;
8708;SDS011;4391;48.678;9.280;2023-11-19T08:52:57;1.23;;;0.50;;
8708;SDS011;4391;48.678;9.280;2023-11-19T08:55:24;1.65;;;0.43;;
8708;SDS011;4391;48.678;9.280;2023-11-19T08:57:51;1.02;;;0.50;;
8708;SDS011;4391;48.678;9.280;2023-11-19T09:00:19;0.90;;;0.30;;
8708;SDS011;4391;48.678;9.280;2023-11-19T09:02:46;0.93;;;0.50;;
8708;SDS011;4391;48.678;9.280;2023-11-19T09:05:13;1.15;;;0.50;;
8708;SDS011;4391;48.678;9.280;2023-11-19T09:07:40;1.17;;;0.50;;
8708;SDS011;4391;48.678;9.280;2023-11-19T09:10:07;0.50;;;0.28;;
8708;SDS011;4391;48.678;9.280;2023-11-19T09:12:36;0.80;;;0.40;;
8708;SDS011;4391;48.678;9.280;2023-11-19T09:15:03;0.95;;;0.50;;
8708;SDS011;4391;48.678;9.280;2023-11-19T09:17:33;1.27;;;0.50;;
8708;SDS011;4391;48.678;9.280;2023-11-19T09:20:00;1.60;;;0.70;;
8708;SDS011;4391;48.678;9.280;2023-11-19T09:22:26;1.05;;;0.50;;
8708;SDS011;4391;48.678;9.280;2023-11-19T09:24:53;1.30;;;0.60;;
8708;SDS011;4391;48.678;9.280;2023-11-19T09:27:20;1.10;;;0.50;;
8708;SDS011;4391;48.678;9.280;2023-11-19T09:29:47;1.00;;;0.40;;
8708;SDS011;4391;48.678;9.280;2023-11-19T09:32:15;0.85;;;0.38;;
8708;SDS011;4391;48.678;9.280;2023-11-19T09:34:43;1.50;;;0.50;;
8708;SDS011;4391;48.678;9.280;2023-11-19T09:37:11;2.70;;;0.40;;
8708;SDS011;4391;48.678;9.280;2023-11-19T09:39:38;0.90;;;0.40;;
8708;SDS011;4391;48.678;9.280;2023-11-19T09:42:08;2.45;;;0.88;;
8708;SDS011;4391;48.678;9.280;2023-11-19T09:44:35;1.08;;;0.32;;
8708;SDS011;4391;48.678;9.280;2023-11-19T09:47:03;1.15;;;0.38;;
8708;SDS011;4391;48.678;9.280;2023-11-19T09:49:31;0.90;;;0.40;;
8708;SDS011;4391;48.678;9.280;2023-11-19T09:52:00;1.52;;;0.40;;
8708;SDS011;4391;48.678;9.280;2023-11-19T09:54:27;1.42;;;0.43;;
8708;SDS011;4391;48.678;9.280;2023-11-19T09:56:54;1.00;;;0.40;;
8708;SDS011;4391;48.678;9.280;2023-11-19T09:59:25;1.73;;;0.50;;
8708;SDS011;4391;48.678;9.280;2023-11-19T10:01:52;1.10;;;0.47;;
8708;SDS011;4391;48.678;9.280;2023-11-19T10:04:21;1.33;;;0.50;;
8708;SDS011;4391;48.678;9.280;2023-11-19T10:06:49;1.35;;;0.50;;
8708;SDS011;4391;48.678;9.280;2023-11-19T10:09:18;2.85;;;0.45;;
8708;SDS011;4391;48.678;9.280;2023-11-19T10:11:45;3.17;;;0.50;;
8708;SDS011;4391;48.678;9.280;2023-11-19T10:14:12;1.20;;;0.43;;
8708;SDS011;4391;48.678;9.280;2023-11-19T10:16:40;1.67;;;0.30;;
8708;SDS011;4391;48.678;9.280;2023-11-19T10:19:08;2.35;;;0.40;;
8708;SDS011;4391;48.678;9.280;2023-11-19T10:21:38;1.98;;;0.40;;
8708;SDS011;4391;48.678;9.280;2023-11-19T10:24:05;1.10;;;0.40;;
8708;SDS011;4391;48.678;9.280;2023-11-19T10:26:33;1.03;;;0.50;;
8708;SDS011;4391;48.678;9.280;2023-11-19T10:29:02;0.88;;;0.47;;
8708;SDS011;4391;48.678;9.280;2023-11-19T10:31:29;0.60;;;0.30;;
8708;SDS011;4391;48.678;9.280;2023-11-19T10:33:56;1.67;;;0.30;;
8708;SDS011;4391;48.678;9.280;2023-11-19T10:36:24;0.70;;;0.30;;
8708;SDS011;4391;48.678;9.280;2023-11-19T10:39:04;1.10;;;0.47;;
8708;SDS011;4391;48.678;9.280;2023-11-19T10:41:31;1.55;;;0.60;;
8708;SDS011;4391;48.678;9.280;2023-11-19T10:43:59;0.82;;;0.30;;
8708;SDS011;4391;48.678;9.280;2023-11-19T10:46:36;2.80;;;0.40;;
8708;SDS011;4391;48.678;9.280;2023-11-19T10:49:04;2.38;;;0.47;;
8708;SDS011;4391;48.678;9.280;2023-11-19T10:51:31;1.77;;;0.60;;
8708;SDS011;4391;48.678;9.280;2023-11-19T10:53:59;1.30;;;0.40;;
8708;SDS011;4391;48.678;9.280;2023-11-19T10:56:30;1.10;;;0.40;;
8708;SDS011;4391;48.678;9.280;2023-11-19T10:59:00;0.85;;;0.40;;
8708;SDS011;4391;48.678;9.280;2023-11-19T11:01:31;4.10;;;0.85;;
8708;SDS011;4391;48.678;9.280;2023-11-19T11:04:05;1.63;;;0.57;;
8708;SDS011;4391;48.678;9.280;2023-11-19T11:06:39;10.00;;;3.55;;
8708;SDS011;4391;48.678;9.280;2023-11-19T11:09:06;9.57;;;2.78;;
8708;SDS011;4391;48.678;9.280;2023-11-19T11:11:37;43.25;;;13.32;;
8708;SDS011;4391;48.678;9.280;2023-11-19T11:14:05;19.85;;;7.40;;
8708;SDS011;4391;48.678;9.280;2023-11-19T11:16:34;4.97;;;2.07;;
8708;SDS011;4391;48.678;9.280;2023-11-19T11:19:03;5.05;;;1.73;;
8708;SDS011;4391;48.678;9.280;2023-11-19T11:21:31;0.93;;;0.43;;
8708;SDS011;4391;48.678;9.280;2023-11-19T11:24:07;2.42;;;0.80;;
8708;SDS011;4391;48.678;9.280;2023-11-19T11:26:53;2.22;;;0.60;;
8708;SDS011;4391;48.678;9.280;2023-11-19T11:29:37;2.07;;;0.90;;
8708;SDS011;4391;48.678;9.280;2023-11-19T11:32:14;1.20;;;0.50;;
8708;SDS011;4391;48.678;9.280;2023-11-19T11:34:58;1.23;;;0.40;;
8708;SDS011;4391;48.678;9.280;2023-11-19T11:37:36;1.48;;;0.60;;
8708;SDS011;4391;48.678;9.280;2023-11-19T11:40:09;1.48;;;0.50;;
8708;SDS011;4391;48.678;9.280;2023-11-19T11:42:41;2.53;;;0.70;;
8708;SDS011;4391;48.678;9.280;2023-11-19T11:45:09;5.68;;;1.38;;
8708;SDS011;4391;48.678;9.280;2023-11-19T11:48:04;2.72;;;0.80;;
8708;SDS011;4391;48.678;9.280;2023-11-19T11:50:54;1.92;;;0.75;;
8708;SDS011;4391;48.678;9.280;2023-11-19T11:53:23;3.58;;;0.80;;
8708;SDS011;4391;48.678;9.280;2023-11-19T11:55:57;1.87;;;0.60;;
8708;SDS011;4391;48.678;9.280;2023-11-19T11:58:27;22.48;;;9.43;;
8708;SDS011;4391;48.678;9.280;2023-11-19T12:01:00;16.83;;;9.23;;
8708;SDS011;4391;48.678;9.280;2023-11-19T12:03:31;16.92;;;9.43;;
8708;SDS011;4391;48.678;9.280;2023-11-19T12:05:59;29.33;;;15.55;;
8708;SDS011;4391;48.678;9.280;2023-11-19T12:08:27;14.00;;;8.00;;
8708;SDS011;4391;48.678;9.280;2023-11-19T12:10:55;4.57;;;1.73;;
8708;SDS011;4391;48.678;9.280;2023-11-19T12:13:24;8.88;;;3.95;;
8708;SDS011;4391;48.678;9.280;2023-11-19T12:16:09;6.93;;;3.53;;
8708;SDS011;4391;48.678;9.280;2023-11-19T12:18:38;37.25;;;19.75;;
8708;SDS011;4391;48.678;9.280;2023-11-19T12:21:07;10.27;;;4.67;;
8708;SDS011;4391;48.678;9.280;2023-11-19T12:23:35;16.02;;;7.88;;
8708;SDS011;4391;48.678;9.280;2023-11-19T12:26:34;5.55;;;2.58;;
8708;SDS011;4391;48.678;9.280;2023-11-19T12:29:05;10.32;;;4.60;;
8708;SDS011;4391;48.678;9.280;2023-11-19T12:31:34;12.70;;;7.35;;
8708;SDS011;4391;48.678;9.280;2023-11-19T12:34:10;1.17;;;0.50;;
8708;SDS011;4391;48.678;9.280;2023-11-19T12:36:38;4.30;;;0.75;;
8708;SDS011;4391;48.678;9.280;2023-11-19T12:39:07;1.65;;;0.50;;
8708;SDS011;4391;48.678;9.280;2023-11-19T12:41:48;1.50;;;0.60;;
8708;SDS011;4391;48.678;9.280;2023-11-19T12:44:17;1.88;;;0.80;;
8708;SDS011;4391;48.678;9.280;2023-11-19T12:46:45;1.63;;;0.50;;
8708;SDS011;4391;48.678;9.280;2023-11-19T12:49:12;3.63;;;0.75;;
8708;SDS011;4391;48.678;9.280;2023-11-19T12:51:39;1.73;;;0.30;;
8708;SDS011;4391;48.678;9.280;2023-11-19T12:54:06;0.80;;;0.32;;
8708;SDS011;4391;48.678;9.280;2023-11-19T12:56:33;0.70;;;0.40;;
8708;SDS011;4391;48.678;9.280;2023-11-19T12:59:09;5.30;;;1.63;;
8708;SDS011;4391;48.678;9.280;2023-11-19T13:01:37;2.83;;;0.65;;
8708;SDS011;4391;48.678;9.280;2023-11-19T13:04:17;1.73;;;0.30;;
8708;SDS011;4391;48.678;9.280;2023-11-19T13:06:44;1.60;;;0.60;;
8708;SDS011;4391;48.678;9.280;2023-11-19T13:09:21;1.13;;;0.40;;
8708;SDS011;4391;48.678;9.280;2023-11-19T13:11:48;1.27;;;0.53;;
8708;SDS011;4391;48.678;9.280;2023-11-19T13:14:15;2.83;;;0.60;;
8708;SDS011;4391;48.678;9.280;2023-11-19T13:16:42;4.00;;;0.65;;
8708;SDS011;4391;48.678;9.280;2023-11-19T13:19:10;1.02;;;0.43;;
8708;SDS011;4391;48.678;9.280;2023-11-19T13:21:38;4.15;;;0.60;;
8708;SDS011;4391;48.678;9.280;2023-11-19T13:24:05;1.77;;;0.50;;
8708;SDS011;4391;48.678;9.280;2023-11-19T13:26:32;1.58;;;0.60;;
8708;SDS011;4391;48.678;9.280;2023-11-19T13:28:59;2.30;;;0.47;;
8708;SDS011;4391;48.678;9.280;2023-11-19T13:31:26;1.20;;;0.32;;
8708;SDS011;4391;48.678;9.280;2023-11-19T13:33:53;1.17;;;0.50;;
8708;SDS011;4391;48.678;9.280;2023-11-19T13:36:20;1.57;;;0.60;;
8708;SDS011;4391;48.678;9.280;2023-11-19T13:38:50;0.75;;;0.30;;
8708;SDS011;4391;48.678;9.280;2023-11-19T13:41:23;1.27;;;0.50;;
8708;SDS011;4391;48.678;9.280;2023-11-19T13:43:50;2.42;;;0.70;;
8708;SDS011;4391;48.678;9.280;2023-11-19T13:46:17;1.83;;;0.60;;
8708;SDS011;4391;48.678;9.280;2023-11-19T13:48:45;4.57;;;1.57;;
8708;SDS011;4391;48.678;9.280;2023-11-19T13:51:13;4.15;;;1.40;;
8708;SDS011;4391;48.678;9.280;2023-11-19T13:53:40;3.05;;;0.63;;
8708;SDS011;4391;48.678;9.280;2023-11-19T13:56:09;3.70;;;0.50;;
8708;SDS011;4391;48.678;9.280;2023-11-19T13:58:40;3.15;;;0.98;;
8708;SDS011;4391;48.678;9.280;2023-11-19T14:01:08;3.10;;;0.90;;
8708;SDS011;4391;48.678;9.280;2023-11-19T14:03:52;4.63;;;0.70;;
8708;SDS011;4391;48.678;9.280;2023-11-19T14:06:19;1.63;;;0.60;;
8708;SDS011;4391;48.678;9.280;2023-11-19T14:08:47;2.08;;;0.70;;
8708;SDS011;4391;48.678;9.280;2023-11-19T14:11:15;1.25;;;0.30;;
8708;SDS011;4391;48.678;9.280;2023-11-19T14:13:42;1.10;;;0.50;;
8708;SDS011;4391;48.678;9.280;2023-11-19T14:16:09;1.65;;;0.60;;
8708;SDS011;4391;48.678;9.280;2023-11-19T14:18:37;1.65;;;0.50;;
8708;SDS011;4391;48.678;9.280;2023-11-19T14:21:04;1.83;;;0.60;;
8708;SDS011;4391;48.678;9.280;2023-11-19T14:23:32;3.38;;;0.50;;
8708;SDS011;4391;48.678;9.280;2023-11-19T14:25:59;1.10;;;0.50;;
8708;SDS011;4391;48.678;9.280;2023-11-19T14:28:27;1.05;;;0.30;;
8708;SDS011;4391;48.678;9.280;2023-11-19T14:30:54;1.75;;;0.63;;
8708;SDS011;4391;48.678;9.280;2023-11-19T14:33:22;2.17;;;0.65;;
8708;SDS011;4391;48.678;9.280;2023-11-19T14:35:51;6.75;;;2.28;;
8708;SDS011;4391;48.678;9.280;2023-11-19T14:38:18;1.27;;;0.40;;
8708;SDS011;4391;48.678;9.280;2023-11-19T14:40:45;3.47;;;1.00;;
8708;SDS011;4391;48.678;9.280;2023-11-19T14:43:15;2.60;;;0.60;;
8708;SDS011;4391;48.678;9.280;2023-11-19T14:45:43;3.75;;;0.90;;
8708;SDS011;4391;48.678;9.280;2023-11-19T14:48:10;2.85;;;0.90;;
8708;SDS011;4391;48.678;9.280;2023-11-19T14:50:36;3.93;;;1.20;;
8708;SDS011;4391;48.678;9.280;2023-11-19T14:53:03;3.10;;;0.93;;
8708;SDS011;4391;48.678;9.280;2023-11-19T14:55:30;2.60;;;0.77;;
8708;SDS011;4391;48.678;9.280;2023-11-19T14:57:58;3.03;;;0.70;;
8708;SDS011;4391;48.678;9.280;2023-11-19T15:00:25;3.17;;;0.40;;
8708;SDS011;4391;48.678;9.280;2023-11-19T15:02:53;1.40;;;0.60;;
8708;SDS011;4391;48.678;9.280;2023-11-19T15:05:21;1.30;;;0.60;;
8708;SDS011;4391;48.678;9.280;2023-11-19T15:07:48;2.45;;;0.60;;
8708;SDS011;4391;48.678;9.280;2023-11-19T15:10:15;2.75;;;0.65;;
8708;SDS011;4391;48.678;9.280;2023-11-19T15:12:42;1.83;;;0.90;;
8708;SDS011;4391;48.678;9.280;2023-11-19T15:15:09;1.73;;;0.60;;
8708;SDS011;4391;48.678;9.280;2023-11-19T15:17:38;2.30;;;0.90;;
8708;SDS011;4391;48.678;9.280;2023-11-19T15:20:07;5.43;;;1.45;;
8708;SDS011;4391;48.678;9.280;2023-11-19T15:22:38;1.00;;;0.50;;